Time;durP1;ratioP1;P1;durP2;ratioP2;P2;SDS_P1;SDS_P2;PMS_P1;PMS_P2;Temp;Humidity;BMP_temperature;BMP_pressure;BME280_temperature;BME280_humidity;BME280_pressure;Samples;Min_cycle;Max_cycle;Signal;HPM_P1;HPM_P2
2023/03/05 00:01:27;;;;;;;10.65;3.28;;;;;;;4.68;100.00;102074.56;5012731;28;20087;-72
2023/03/05 00:03:54;;;;;;;16.60;3.80;;;;;;;4.74;100.00;102082.84;5011255;28;20036;-73
2023/03/05 00:06:20;;;;;;;14.88;3.50;;;;;;;4.70;100.00;102078.78;5012458;28;20038;-71
2023/03/05 00:08:47;;;;;;;18.33;3.78;;;;;;;4.69;100.00;102081.63;5011158;28;20465;-71
2023/03/05 00:11:12;;;;;;;16.35;3.60;;;;;;;4.67;100.00;102076.41;5014620;28;20026;-72
2023/03/05 00:13:38;;;;;;;17.10;3.72;;;;;;;4.63;100.00;102075.03;5021218;28;20034;-71
2023/03/05 00:16:09;;;;;;;13.55;3.83;;;;;;;4.59;100.00;102073.69;5012232;28;20355;-70
2023/03/05 00:18:40;;;;;;;15.13;4.38;;;;;;;4.56;100.00;102071.28;5010995;28;20038;-72
2023/03/05 00:21:37;;;;;;;13.38;3.55;;;;;;;4.61;100.00;102074.34;5011749;28;20057;-70
2023/03/05 00:24:05;;;;;;;12.77;3.67;;;;;;;4.51;100.00;102071.75;4999570;28;20132;-71
2023/03/05 00:26:33;;;;;;;14.57;3.63;;;;;;;4.53;100.00;102074.28;5012359;28;20073;-73
2023/03/05 00:28:58;;;;;;;12.25;3.03;;;;;;;4.56;100.00;102063.22;5011935;28;20034;-69
2023/03/05 00:31:30;;;;;;;15.02;3.25;;;;;;;4.60;100.00;102059.25;4994610;28;20393;-70
2023/03/05 00:33:57;;;;;;;;;;;;;;;4.77;100.00;102065.56;5011895;28;20511;-69
2023/03/05 00:36:23;;;;;;;12.85;3.38;;;;;;;4.61;100.00;102059.09;5010378;28;19955;-70
2023/03/05 00:38:49;;;;;;;14.00;3.45;;;;;;;4.58;100.00;102059.41;4993764;28;20129;-70
2023/03/05 00:41:14;;;;;;;12.70;3.47;;;;;;;4.56;100.00;102053.38;5010159;28;20440;-71
2023/03/05 00:43:40;;;;;;;13.43;3.50;;;;;;;4.60;100.00;102051.22;4993163;28;20468;-72
2023/03/05 00:46:05;;;;;;;12.77;4.05;;;;;;;4.63;100.00;102048.22;5012319;28;20088;-72
2023/03/05 00:48:30;;;;;;;13.43;3.30;;;;;;;4.64;100.00;102044.53;5013380;28;20030;-73
2023/03/05 00:50:56;;;;;;;14.70;3.28;;;;;;;4.61;100.00;102043.00;5012139;28;20034;-71
2023/03/05 00:53:22;;;;;;;13.63;2.80;;;;;;;4.62;100.00;102043.88;4994171;28;20100;-71
2023/03/05 00:55:47;;;;;;;15.90;3.58;;;;;;;4.63;100.00;102036.66;5012300;28;20041;-70
2023/03/05 00:58:13;;;;;;;14.25;3.30;;;;;;;4.66;100.00;102042.53;5010330;28;20031;-72
2023/03/05 01:00:38;;;;;;;13.35;3.30;;;;;;;4.66;100.00;102039.84;5006860;28;20049;-71
2023/03/05 01:03:03;;;;;;;13.82;3.28;;;;;;;4.70;100.00;102033.19;5016770;28;20065;-71
2023/03/05 01:05:29;;;;;;;14.75;3.25;;;;;;;4.75;100.00;102041.59;5002049;28;20068;-71
2023/03/05 01:07:55;;;;;;;14.25;3.80;;;;;;;4.76;100.00;102031.72;5010628;28;20034;-72
2023/03/05 01:10:22;;;;;;;15.10;3.40;;;;;;;4.75;100.00;102033.53;5009027;28;20500;-73
2023/03/05 01:12:47;;;;;;;13.70;3.30;;;;;;;4.75;100.00;102033.53;5010654;28;20026;-71
2023/03/05 01:15:13;;;;;;;14.93;3.58;;;;;;;4.74;100.00;102023.84;5010155;28;20034;-71
2023/03/05 01:17:38;;;;;;;13.93;3.63;;;;;;;4.67;100.00;102022.78;5009269;28;20052;-71
2023/03/05 01:20:05;;;;;;;15.68;3.42;;;;;;;4.68;100.00;102015.56;5011749;28;20039;-71
2023/03/05 01:22:30;;;;;;;13.43;3.70;;;;;;;4.68;100.00;102015.56;4995985;28;20021;-73
2023/03/05 01:24:55;;;;;;;14.82;3.60;;;;;;;4.58;100.00;102010.31;5012288;28;20354;-71
2023/03/05 01:27:22;;;;;;;16.10;3.65;;;;;;;4.52;100.00;102014.47;5009883;28;20160;-72
2023/03/05 01:29:47;;;;;;;16.23;4.07;;;;;;;4.57;100.00;102012.13;5010127;28;20087;-71
2023/03/05 01:32:12;;;;;;;15.02;3.40;;;;;;;4.49;100.00;102003.22;5012015;28;20022;-72
2023/03/05 01:34:38;;;;;;;19.73;3.85;;;;;;;4.41;100.00;101996.78;5010949;28;20401;-73
2023/03/05 01:37:03;;;;;;;17.58;4.07;;;;;;;4.36;100.00;101999.13;4997867;28;20037;-73
2023/03/05 01:39:29;;;;;;;14.23;4.28;;;;;;;4.30;100.00;101999.72;5013065;28;20034;-74
2023/03/05 01:41:54;;;;;;;14.07;3.65;;;;;;;4.32;100.00;101988.84;5014879;28;20061;-72
2023/03/05 01:44:22;;;;;;;13.18;3.05;;;;;;;4.27;100.00;101983.94;4995649;28;20030;-71
2023/03/05 01:46:48;;;;;;;13.38;3.28;;;;;;;4.26;100.00;101982.28;5012948;28;20038;-71
2023/03/05 01:49:18;;;;;;;14.50;3.53;;;;;;;4.24;100.00;101978.91;5013441;28;20122;-70
2023/03/05 01:51:46;;;;;;;15.90;3.45;;;;;;;4.28;100.00;101974.91;5021073;28;20064;-71
2023/03/05 01:54:14;;;;;;;10.38;2.90;;;;;;;4.27;100.00;101967.88;5011618;28;20042;-74
2023/03/05 01:56:40;;;;;;;17.17;3.80;;;;;;;4.25;100.00;101959.97;5014638;28;20058;-70
2023/03/05 01:59:06;;;;;;;10.95;3.05;;;;;;;4.28;100.00;101961.53;5013826;28;20044;-71
2023/03/05 02:01:38;;;;;;;10.60;3.13;;;;;;;4.31;100.00;101953.16;5010775;28;20038;-70
2023/03/05 02:04:04;;;;;;;13.43;3.20;;;;;;;4.34;100.00;101952.84;5013298;28;20041;-73
2023/03/05 02:06:29;;;;;;;14.68;3.40;;;;;;;4.34;100.00;101952.03;5015768;28;20040;-74
2023/03/05 02:08:55;;;;;;;11.45;2.83;;;;;;;4.32;100.00;101946.81;5019857;28;20034;-72
2023/03/05 02:11:20;;;;;;;17.38;3.22;;;;;;;4.26;100.00;101939.41;5014550;28;20462;-71
2023/03/05 02:13:46;;;;;;;14.13;3.17;;;;;;;4.26;100.00;101934.88;5012543;28;20469;-71
2023/03/05 02:16:11;;;;;;;11.23;3.05;;;;;;;4.24;100.00;101934.22;5013820;28;20034;-70
2023/03/05 02:18:37;;;;;;;11.75;3.00;;;;;;;4.30;100.00;101932.72;5013988;28;20045;-71
2023/03/05 02:21:09;;;;;;;15.73;2.90;;;;;;;4.33;100.00;101932.41;5012722;28;20056;-70
2023/03/05 02:23:36;;;;;;;13.20;2.95;;;;;;;4.32;100.00;101922.69;5013404;28;20105;-72
2023/03/05 02:26:07;;;;;;;11.30;2.67;;;;;;;4.36;100.00;101923.22;5016552;28;20041;-72
2023/03/05 02:28:49;;;;;;;11.07;3.08;;;;;;;4.37;100.00;101919.53;5004274;28;20096;-69
2023/03/05 02:31:18;;;;;;;9.88;2.80;;;;;;;4.33;100.00;101919.00;5012693;28;20046;-72
2023/03/05 02:33:46;;;;;;;11.57;2.83;;;;;;;4.28;100.00;101918.66;5012171;28;20030;-72
2023/03/05 02:36:12;;;;;;;13.30;3.55;;;;;;;4.30;100.00;101922.00;5013693;28;20030;-72
2023/03/05 02:38:39;;;;;;;11.82;2.80;;;;;;;4.29;100.00;101922.16;5013261;28;20041;-69
2023/03/05 02:41:04;;;;;;;12.48;2.97;;;;;;;4.24;100.00;101914.59;4996704;28;20189;-69
2023/03/05 02:43:30;;;;;;;12.90;3.05;;;;;;;4.25;100.00;101917.13;5010275;28;20069;-69
2023/03/05 02:45:55;;;;;;;12.13;2.88;;;;;;;4.24;100.00;101910.09;5012549;28;20080;-69
2023/03/05 02:48:21;;;;;;;14.93;3.63;;;;;;;4.23;100.00;101912.94;5012596;28;20033;-72
2023/03/05 02:50:47;;;;;;;9.60;2.50;;;;;;;4.20;100.00;101902.53;4994528;28;20069;-70
2023/03/05 02:53:12;;;;;;;11.80;3.53;;;;;;;4.20;100.00;101892.63;5013216;28;20045;-72
2023/03/05 02:55:38;;;;;;;14.68;3.00;;;;;;;4.24;100.00;101894.00;5013062;28;20092;-70
2023/03/05 02:58:03;;;;;;;15.23;3.50;;;;;;;4.25;100.00;101889.50;5011997;28;20113;-70
2023/03/05 03:00:28;;;;;;;13.10;2.95;;;;;;;4.24;100.00;101888.66;5010539;28;20065;-71
2023/03/05 03:02:54;;;;;;;11.88;3.40;;;;;;;4.23;100.00;101883.47;5010601;28;20045;-71
2023/03/05 03:05:19;;;;;;;11.77;3.40;;;;;;;4.26;100.00;101883.97;5012452;28;20033;-70
2023/03/05 03:07:45;;;;;;;12.63;3.30;;;;;;;4.30;100.00;101881.81;5013091;28;20426;-72
2023/03/05 03:10:11;;;;;;;10.68;2.95;;;;;;;4.31;100.00;101878.13;5012461;28;20033;-70
2023/03/05 03:12:38;;;;;;;10.52;3.22;;;;;;;4.32;100.00;101869.09;5011028;28;20081;-70
2023/03/05 03:15:03;;;;;;;16.95;3.60;;;;;;;4.33;100.00;101875.28;5013650;28;20079;-71
2023/03/05 03:17:29;;;;;;;10.55;3.30;;;;;;;4.30;100.00;101876.44;4994077;28;20029;-70
2023/03/05 03:19:54;;;;;;;15.07;3.45;;;;;;;4.27;100.00;101866.03;5013275;28;20029;-71
2023/03/05 03:22:20;;;;;;;14.10;3.38;;;;;;;4.22;100.00;101871.88;5010407;28;20079;-73
2023/03/05 03:24:45;;;;;;;12.57;3.53;;;;;;;4.17;100.00;101860.81;5012016;28;20029;-69
2023/03/05 03:27:10;;;;;;;11.30;3.20;;;;;;;4.15;100.00;101860.13;5013488;28;20054;-72
2023/03/05 03:29:36;;;;;;;10.57;3.38;;;;;;;4.14;100.00;101857.63;5011127;28;20057;-70
2023/03/05 03:32:01;;;;;;;16.00;3.95;;;;;;;4.12;100.00;101847.03;5012433;28;20026;-72
2023/03/05 03:34:27;;;;;;;14.40;3.88;;;;;;;4.07;100.00;101846.69;5013357;28;20034;-71
2023/03/05 03:36:52;;;;;;;14.35;3.55;;;;;;;4.05;100.00;101836.13;5013279;28;20076;-72
2023/03/05 03:39:18;;;;;;;15.55;3.72;;;;;;;4.00;100.00;101838.44;5012019;28;20030;-71
2023/03/05 03:41:47;;;;;;;14.35;3.80;;;;;;;4.00;100.00;101830.41;5010550;28;20484;-72
2023/03/05 03:44:13;;;;;;;12.90;3.47;;;;;;;4.03;100.00;101840.81;5011363;28;20099;-70
2023/03/05 03:46:39;;;;;;;14.43;3.47;;;;;;;4.04;100.00;101825.56;5012959;28;20065;-72
2023/03/05 03:49:07;;;;;;;12.77;3.50;;;;;;;4.02;100.00;101833.75;5010726;28;20026;-70
2023/03/05 03:51:33;;;;;;;19.45;4.65;;;;;;;3.97;100.00;101824.50;4994375;28;20049;-72
2023/03/05 03:53:59;;;;;;;14.80;4.00;;;;;;;3.95;100.00;101829.19;4994354;28;20033;-69
2023/03/05 03:56:24;;;;;;;13.38;4.10;;;;;;;3.90;100.00;101829.66;5012004;28;20038;-72
2023/03/05 03:58:51;;;;;;;15.43;4.25;;;;;;;3.86;100.00;101822.94;5011121;28;20113;-71
2023/03/05 04:01:17;;;;;;;14.00;4.55;;;;;;;3.83;100.00;101833.97;4993512;28;20050;-69
2023/03/05 04:03:43;;;;;;;13.68;4.60;;;;;;;3.83;100.00;101820.56;5012171;28;20056;-73
2023/03/05 04:06:08;;;;;;;16.65;4.57;;;;;;;3.80;100.00;101813.69;5009768;28;20481;-73
2023/03/05 04:08:34;;;;;;;16.17;4.72;;;;;;;3.79;100.00;101817.38;5012555;28;20034;-72
2023/03/05 04:11:00;;;;;;;15.93;4.57;;;;;;;3.77;100.00;101815.84;5012601;28;20029;-71
2023/03/05 04:13:26;;;;;;;17.75;4.90;;;;;;;3.79;100.00;101813.84;5012867;28;20038;-72
2023/03/05 04:15:52;;;;;;;17.00;4.80;;;;;;;3.79;100.00;101813.84;4994911;28;20531;-69
2023/03/05 04:18:17;;;;;;;16.73;4.97;;;;;;;3.78;100.00;101812.19;4994756;28;20033;-70
2023/03/05 04:20:42;;;;;;;17.73;5.10;;;;;;;3.77;100.00;101805.13;5001093;28;20458;-71
2023/03/05 04:23:08;;;;;;;16.77;4.57;;;;;;;3.75;100.00;101802.63;5010398;28;20171;-69
2023/03/05 04:25:33;;;;;;;16.75;4.70;;;;;;;3.72;100.00;101793.03;5011188;28;20026;-69
2023/03/05 04:27:59;;;;;;;15.93;4.68;;;;;;;3.71;100.00;101788.72;5016951;28;20045;-73
2023/03/05 04:30:24;;;;;;;15.55;4.85;;;;;;;3.72;100.00;101793.03;5009571;28;20042;-73
2023/03/05 04:32:49;;;;;;;13.85;4.22;;;;;;;3.67;100.00;101790.00;5011903;28;20096;-72
2023/03/05 04:35:15;;;;;;;16.70;5.35;;;;;;;3.69;100.00;101782.66;5012863;28;20030;-72
2023/03/05 04:37:40;;;;;;;16.30;5.10;;;;;;;3.70;100.00;101792.38;4993292;28;20461;-72
2023/03/05 04:40:06;;;;;;;16.70;5.00;;;;;;;3.70;100.00;101787.03;4994466;28;20481;-72
2023/03/05 04:42:32;;;;;;;15.68;4.82;;;;;;;3.72;100.00;101776.16;5011738;28;20026;-70
2023/03/05 04:44:57;;;;;;;15.77;4.78;;;;;;;3.73;100.00;101776.00;5011396;28;20131;-71
2023/03/05 04:47:22;;;;;;;18.42;4.70;;;;;;;3.66;100.00;101780.28;5011628;28;20034;-70
2023/03/05 04:49:48;;;;;;;15.80;5.28;;;;;;;3.71;100.00;101780.69;5010983;28;20037;-71
2023/03/05 04:52:14;;;;;;;15.73;5.40;;;;;;;3.72;100.00;101774.31;5009732;28;20062;-71
2023/03/05 04:54:39;;;;;;;19.83;5.80;;;;;;;3.70;100.00;101773.63;5012615;28;20037;-70
2023/03/05 04:57:05;;;;;;;18.58;5.57;;;;;;;3.77;100.00;101776.50;5011915;28;20025;-71
2023/03/05 04:59:30;;;;;;;14.25;5.70;;;;;;;3.74;100.00;101768.78;5011383;28;20448;-70
2023/03/05 05:01:56;;;;;;;14.98;5.70;;;;;;;3.75;100.00;101764.31;5012895;28;20129;-72
2023/03/05 05:04:21;;;;;;;19.00;5.15;;;;;;;3.71;100.00;101759.25;5009852;28;20088;-70
2023/03/05 05:06:46;;;;;;;12.95;5.40;;;;;;;3.70;100.00;101765.59;5010479;28;20029;-70
2023/03/05 05:09:12;;;;;;;15.95;5.63;;;;;;;3.67;100.00;101757.06;5013802;28;20113;-72
2023/03/05 05:11:38;;;;;;;14.20;5.65;;;;;;;3.66;100.00;101756.19;5008262;28;20030;-70
2023/03/05 05:14:03;;;;;;;14.23;5.57;;;;;;;3.68;100.00;101753.38;5017676;28;20041;-71
2023/03/05 05:16:29;;;;;;;15.13;5.50;;;;;;;3.66;100.00;101750.03;5014798;28;20037;-72
2023/03/05 05:18:54;;;;;;;16.45;6.20;;;;;;;3.62;100.00;101754.00;4997494;28;20092;-70
2023/03/05 05:21:20;;;;;;;17.70;6.38;;;;;;;3.69;100.00;101755.88;4995871;28;20102;-73
2023/03/05 05:23:45;;;;;;;17.00;5.97;;;;;;;3.66;100.00;101753.53;4997170;28;20038;-70
2023/03/05 05:26:13;;;;;;;20.95;6.13;;;;;;;3.64;100.00;101744.81;4996937;28;20053;-70
2023/03/05 05:28:41;;;;;;;16.60;6.28;;;;;;;3.63;100.00;101747.66;5014064;28;20562;-69
2023/03/05 05:31:08;;;;;;;15.13;6.32;;;;;;;3.68;100.00;101748.88;5014275;28;20062;-70
2023/03/05 05:33:33;;;;;;;15.57;6.40;;;;;;;3.66;100.00;101747.34;5015370;28;20509;-72
2023/03/05 05:36:01;;;;;;;14.63;6.43;;;;;;;3.64;100.00;101746.63;5015318;28;20065;-69
2023/03/05 05:38:27;;;;;;;14.77;6.55;;;;;;;3.63;100.00;101742.31;4997184;28;20030;-72
2023/03/05 05:41:04;;;;;;;15.07;6.43;;;;;;;3.62;100.00;101733.41;5015519;28;20026;-68
2023/03/05 05:43:30;;;;;;;15.27;6.40;;;;;;;3.61;100.00;101747.81;4996508;28;20037;-70
2023/03/05 05:45:59;;;;;;;16.55;7.07;;;;;;;3.64;100.00;101742.16;5014088;28;20104;-71
2023/03/05 05:48:24;;;;;;;16.10;6.22;;;;;;;3.64;100.00;101744.81;5016727;28;20451;-72
2023/03/05 05:50:49;;;;;;;16.00;6.65;;;;;;;3.64;100.00;101734.13;5014964;28;20104;-69
2023/03/05 05:53:15;;;;;;;17.00;6.22;;;;;;;3.64;100.00;101736.78;5013834;28;20034;-71
2023/03/05 05:55:40;;;;;;;14.88;6.07;;;;;;;3.66;100.00;101731.28;5015385;28;20026;-69
2023/03/05 05:58:05;;;;;;;14.88;6.88;;;;;;;3.57;100.00;101725.03;5011887;28;20062;-71
2023/03/05 06:00:30;;;;;;;13.95;6.65;;;;;;;3.57;100.00;101727.72;5011445;28;20159;-69
2023/03/05 06:02:56;;;;;;;18.35;6.72;;;;;;;3.53;100.00;101719.16;5011175;28;20061;-70
2023/03/05 06:05:21;;;;;;;12.05;6.07;;;;;;;3.51;100.00;101718.47;5013640;28;20030;-70
2023/03/05 06:07:47;;;;;;;21.63;6.80;;;;;;;3.48;100.00;101716.09;5021659;28;20029;-72
2023/03/05 06:10:12;;;;;;;17.45;6.60;;;;;;;3.49;100.00;101709.75;5014677;28;20028;-69
2023/03/05 06:12:40;;;;;;;14.98;6.50;;;;;;;3.46;100.00;101703.91;5013554;28;20072;-71
2023/03/05 06:15:06;;;;;;;16.63;6.38;;;;;;;3.48;100.00;101709.91;4996828;28;20040;-72
2023/03/05 06:17:32;;;;;;;15.05;6.72;;;;;;;3.45;100.00;101699.53;5013918;28;20029;-70
2023/03/05 06:19:58;;;;;;;19.50;6.32;;;;;;;3.50;100.00;101707.91;5012897;28;20371;-72
2023/03/05 06:22:26;;;;;;;15.18;6.20;;;;;;;3.49;100.00;101701.72;4996036;28;20124;-69
2023/03/05 06:24:52;;;;;;;15.00;6.75;;;;;;;3.54;100.00;101701.25;4995177;28;20033;-70
2023/03/05 06:27:17;;;;;;;13.32;6.43;;;;;;;3.54;100.00;101704.75;5013358;28;20076;-69
2023/03/05 06:29:42;;;;;;;15.05;6.82;;;;;;;3.53;100.00;101702.25;5008883;28;20033;-70
2023/03/05 06:32:08;;;;;;;14.10;7.00;;;;;;;3.51;100.00;101710.44;5013714;28;20137;-70
2023/03/05 06:34:33;;;;;;;17.63;6.57;;;;;;;3.56;100.00;101709.97;5014178;28;20040;-71
2023/03/05 06:36:58;;;;;;;16.98;6.97;;;;;;;3.57;100.00;101708.97;5013016;28;20053;-72
2023/03/05 06:39:24;;;;;;;14.13;6.78;;;;;;;3.53;100.00;101708.47;5013056;28;20037;-70
2023/03/05 06:41:51;;;;;;;13.63;6.20;;;;;;;3.57;100.00;101703.63;5013324;28;20026;-70
2023/03/05 06:44:16;;;;;;;15.40;6.75;;;;;;;3.60;100.00;101707.81;5013109;28;20037;-70
2023/03/05 06:46:41;;;;;;;13.70;6.00;;;;;;;3.61;100.00;101710.34;5016865;28;20029;-71
2023/03/05 06:49:08;;;;;;;14.82;6.03;;;;;;;3.56;100.00;101701.94;5000200;28;20087;-71
2023/03/05 06:51:35;;;;;;;12.98;6.15;;;;;;;3.57;100.00;101708.16;5013410;28;20041;-72
2023/03/05 06:54:06;;;;;;;13.35;6.03;;;;;;;3.58;100.00;101707.97;5010706;28;20034;-71
2023/03/05 06:56:34;;;;;;;12.02;5.78;;;;;;;3.58;100.00;101705.31;4997862;28;20022;-72
2023/03/05 06:58:59;;;;;;;10.70;5.40;;;;;;;3.56;100.00;101712.63;5011043;28;20030;-72
2023/03/05 07:01:25;;;;;;;10.23;5.43;;;;;;;3.57;100.00;101708.97;5008014;28;20046;-72
2023/03/05 07:03:52;;;;;;;13.52;5.38;;;;;;;3.56;100.00;101712.63;5013173;28;20104;-72
2023/03/05 07:06:19;;;;;;;15.55;5.20;;;;;;;3.54;100.00;101706.63;5008303;28;20113;-73
2023/03/05 07:08:45;;;;;;;10.70;4.80;;;;;;;3.57;100.00;101717.00;4995036;28;20109;-72
2023/03/05 07:11:13;;;;;;;14.25;5.28;;;;;;;3.56;100.00;101715.31;5010824;28;20057;-71
2023/03/05 07:13:39;;;;;;;11.52;5.35;;;;;;;3.56;100.00;101707.28;4997189;28;20030;-72
2023/03/05 07:16:09;;;;;;;9.85;5.10;;;;;;;3.54;100.00;101712.78;4996821;28;20492;-72
2023/03/05 07:18:35;;;;;;;10.85;5.22;;;;;;;3.57;100.00;101703.63;5013402;28;20038;-70
2023/03/05 07:21:05;;;;;;;11.57;5.68;;;;;;;3.56;100.00;101707.28;5021520;28;20044;-70
2023/03/05 07:23:31;;;;;;;7.95;4.75;;;;;;;3.58;100.00;101699.97;5012992;28;20038;-70
2023/03/05 07:25:56;;;;;;;11.40;5.35;;;;;;;3.64;100.00;101693.09;5011498;28;20049;-70
2023/03/05 07:28:22;;;;;;;9.65;4.57;;;;;;;3.68;100.00;101697.16;5013118;28;20083;-72
2023/03/05 07:30:57;;;;;;;11.05;4.80;;;;;;;3.67;100.00;101692.81;5013579;28;20038;-71
2023/03/05 07:33:24;;;;;;;7.13;4.18;;;;;;;3.68;100.00;101695.34;5013031;28;20040;-70
2023/03/05 07:35:49;;;;;;;8.77;4.22;;;;;;;3.67;100.00;101692.81;5013367;28;20088;-72
2023/03/05 07:38:14;;;;;;;8.50;4.50;;;;;;;3.71;100.00;101691.47;5011507;28;20038;-70
2023/03/05 07:40:40;;;;;;;10.00;4.40;;;;;;;3.78;100.00;101689.03;5019369;28;20398;-71
2023/03/05 07:43:05;;;;;;;7.13;4.28;;;;;;;3.77;100.00;101687.34;5013381;28;20066;-72
2023/03/05 07:45:30;;;;;;;9.50;3.72;;;;;;;3.80;100.00;101693.19;5012901;28;20466;-70
2023/03/05 07:47:56;;;;;;;8.85;4.20;;;;;;;3.79;100.00;101690.69;4995305;28;20072;-72
2023/03/05 07:50:22;;;;;;;10.82;4.32;;;;;;;3.82;100.00;101693.03;5012815;28;20038;-69
2023/03/05 07:52:47;;;;;;;8.88;4.07;;;;;;;3.82;100.00;101693.91;5012134;28;20038;-71
2023/03/05 07:55:13;;;;;;;6.97;4.00;;;;;;;3.88;100.00;101693.25;4995183;28;20092;-70
2023/03/05 07:57:38;;;;;;;8.98;3.65;;;;;;;3.88;100.00;101685.22;5011490;28;20044;-70
2023/03/05 08:00:05;;;;;;;7.18;3.80;;;;;;;3.88;100.00;101684.38;5008084;28;20033;-72
2023/03/05 08:02:30;;;;;;;9.27;3.83;;;;;;;3.91;100.00;101684.06;5020119;28;20037;-70
2023/03/05 08:04:56;;;;;;;7.63;3.92;;;;;;;3.90;100.00;101685.06;4993935;28;20045;-72
2023/03/05 08:07:21;;;;;;;7.13;3.28;;;;;;;3.91;100.00;101684.06;5012621;28;20089;-69
2023/03/05 08:09:47;;;;;;;9.90;3.30;;;;;;;3.96;100.00;101679.06;5010771;28;20037;-71
2023/03/05 08:12:12;;;;;;;8.13;3.40;;;;;;;3.96;100.00;101679.06;5012350;28;20168;-71
2023/03/05 08:14:37;;;;;;;13.13;3.65;;;;;;;4.01;100.00;101674.03;5011122;28;20465;-70
2023/03/05 08:17:03;;;;;;;8.75;3.70;;;;;;;4.05;100.00;101679.94;5008874;28;20053;-71
2023/03/05 08:19:29;;;;;;;7.80;3.63;;;;;;;4.10;100.00;101679.44;5009005;28;20115;-72
2023/03/05 08:21:54;;;;;;;8.27;3.30;;;;;;;4.10;100.00;101676.78;5012808;28;20059;-71
2023/03/05 08:24:21;;;;;;;10.77;3.20;;;;;;;4.05;100.00;101667.38;5021516;28;20168;-72
2023/03/05 08:26:46;;;;;;;8.13;3.60;;;;;;;4.04;100.00;101673.72;5014469;28;20049;-70
2023/03/05 08:29:12;;;;;;;7.32;3.20;;;;;;;4.07;100.00;101678.75;4992303;28;20401;-70
2023/03/05 08:31:38;;;;;;;7.88;3.90;;;;;;;4.06;100.00;101666.38;5010683;28;20053;-71
2023/03/05 08:34:03;;;;;;;10.02;3.75;;;;;;;4.11;100.00;101673.94;5010381;28;20117;-71
2023/03/05 08:36:29;;;;;;;5.78;3.28;;;;;;;4.12;100.00;101661.38;5009013;28;20037;-71
2023/03/05 08:38:58;;;;;;;6.93;3.50;;;;;;;4.14;100.00;101665.56;5009502;28;20033;-71
2023/03/05 08:41:23;;;;;;;8.25;3.70;;;;;;;4.19;100.00;101657.03;5031024;28;20085;-71
2023/03/05 08:43:49;;;;;;;8.52;3.40;;;;;;;4.16;100.00;101657.38;5019328;28;20111;-71
2023/03/05 08:46:15;;;;;;;7.20;3.65;;;;;;;4.22;100.00;101656.72;5014961;28;20521;-71
2023/03/05 08:48:40;;;;;;;6.05;2.97;;;;;;;4.25;100.00;101645.66;5014142;28;20030;-71
2023/03/05 08:51:12;;;;;;;6.57;3.08;;;;;;;4.25;100.00;101648.34;5015518;28;20117;-72
2023/03/05 08:53:38;;;;;;;6.05;3.20;;;;;;;4.28;100.00;101650.69;4997062;28;20381;-71
2023/03/05 08:56:03;;;;;;;8.10;3.63;;;;;;;4.35;100.00;101645.50;5015477;28;20093;-70
2023/03/05 08:58:29;;;;;;;6.97;3.00;;;;;;;4.42;100.00;101639.34;4996805;28;20425;-72
2023/03/05 09:00:55;;;;;;;5.72;2.70;;;;;;;4.52;100.00;101633.00;5023106;28;20050;-70
2023/03/05 09:03:23;;;;;;;7.28;2.70;;;;;;;4.53;100.00;101635.50;4997222;28;20044;-71
2023/03/05 09:05:50;;;;;;;5.75;2.42;;;;;;;4.60;100.00;101636.53;5014896;28;20044;-70
2023/03/05 09:08:16;;;;;;;5.40;2.40;;;;;;;4.56;100.00;101634.31;5013472;28;20037;-71
2023/03/05 09:10:42;;;;;;;5.60;2.50;;;;;;;4.56;100.00;101624.47;4997631;28;20442;-71
2023/03/05 09:13:10;;;;;;;4.88;2.50;;;;;;;4.52;100.00;101633.00;5012793;28;20129;-70
2023/03/05 09:15:37;;;;;;;4.13;2.35;;;;;;;4.53;100.00;101623.94;5015634;28;20456;-73
2023/03/05 09:18:02;;;;;;;6.10;2.33;;;;;;;4.47;100.00;101628.13;4996339;28;20532;-70
2023/03/05 09:20:28;;;;;;;5.97;3.30;;;;;;;4.49;100.00;101620.75;5015344;28;20034;-73
2023/03/05 09:22:54;;;;;;;7.03;2.80;;;;;;;4.52;100.00;101623.09;5031974;28;20037;-70
2023/03/05 09:25:20;;;;;;;8.15;3.13;;;;;;;4.58;100.00;101617.09;5015874;28;20041;-71
2023/03/05 09:27:45;;;;;;;6.32;2.40;;;;;;;4.61;100.00;101615.91;5013571;28;20505;-71
2023/03/05 09:30:14;;;;;;;6.00;2.20;;;;;;;4.66;100.00;101616.25;4996437;28;20419;-71
2023/03/05 09:32:39;;;;;;;5.07;2.28;;;;;;;4.69;100.00;101615.91;5013933;28;20030;-70
2023/03/05 09:35:06;;;;;;;5.18;2.58;;;;;;;4.69;100.00;101601.69;4996965;28;20125;-70
2023/03/05 09:37:32;;;;;;;4.47;2.30;;;;;;;4.71;100.00;101600.50;4997181;28;20025;-70
2023/03/05 09:39:57;;;;;;;6.13;2.67;;;;;;;4.78;100.00;101600.66;5023389;28;20036;-69
2023/03/05 09:42:32;;;;;;;5.35;2.35;;;;;;;4.86;100.00;101607.88;5017241;28;20025;-74
2023/03/05 09:45:29;;;;;;;4.32;2.33;;;;;;;4.96;100.00;101593.25;5012723;28;20034;-75
2023/03/05 09:48:08;;;;;;;5.38;2.83;;;;;;;4.99;100.00;101596.63;5013123;28;20034;-73
2023/03/05 09:50:37;;;;;;;3.70;2.17;;;;;;;4.99;100.00;101596.63;5010867;28;20375;-75
2023/03/05 09:53:31;;;;;;;4.93;2.50;;;;;;;5.05;100.00;101596.78;5014068;28;20038;-74
2023/03/05 09:56:03;;;;;;;4.22;2.25;;;;;;;5.08;100.00;101593.75;5011930;28;20077;-72
2023/03/05 09:58:36;;;;;;;6.80;2.75;;;;;;;5.09;100.00;101589.25;5014478;28;20033;-76
2023/03/05 10:01:19;;;;;;;5.65;2.47;;;;;;;5.14;100.00;101593.06;5019952;28;20101;-73
2023/03/05 10:04:11;;;;;;;3.55;2.70;;;;;;;5.09;100.00;101587.41;5009469;28;20073;-75
2023/03/05 10:06:49;;;;;;;4.55;2.22;;;;;;;5.12;100.00;101589.72;5014287;28;20049;-74
2023/03/05 10:09:34;;;;;;;8.45;2.50;;;;;;;5.13;100.00;101588.72;5013646;28;20029;-76
2023/03/05 10:12:11;;;;;;;4.97;2.38;;;;;;;5.11;100.00;101581.84;5015669;28;20112;-77
2023/03/05 10:14:50;;;;;;;4.15;2.45;;;;;;;5.12;100.00;101587.06;5013027;28;20080;-77
2023/03/05 10:17:31;;;;;;;4.30;2.63;;;;;;;5.10;100.00;101583.72;5014941;28;20032;-75
2023/03/05 10:20:34;;;;;;;5.05;2.58;;;;;;;5.18;100.00;101584.69;5009127;28;20034;-76
2023/03/05 10:23:24;;;;;;;4.90;2.78;;;;;;;5.26;100.00;101564.03;5018428;28;20034;-75
2023/03/05 10:26:13;;;;;;;6.80;2.50;;;;;;;5.27;100.00;101562.22;5012504;28;20401;-74
2023/03/05 10:29:02;;;;;;;4.13;2.30;;;;;;;5.19;100.00;101559.53;5013925;28;20029;-74
2023/03/05 10:31:49;;;;;;;5.38;2.35;;;;;;;5.19;100.00;101562.22;4996680;28;20288;-75
2023/03/05 10:34:42;;;;;;;4.90;2.03;;;;;;;5.17;100.00;101557.03;5009424;28;20050;-73
2023/03/05 10:37:07;;;;;;;4.68;2.20;;;;;;;5.13;100.00;101553.84;5012244;28;20058;-76
2023/03/05 10:39:56;;;;;;;7.57;2.28;;;;;;;5.12;100.00;101554.84;5014315;28;20068;-74
2023/03/05 10:42:29;;;;;;;6.40;2.92;;;;;;;5.06;100.00;101550.19;5018412;28;20153;-75
2023/03/05 10:44:57;;;;;;;5.20;1.92;;;;;;;4.83;100.00;101576.03;5012816;28;20103;-73
2023/03/05 10:47:44;;;;;;;7.38;1.63;;;;;;;4.48;100.00;101578.03;5027439;28;20168;-74
2023/03/05 10:50:36;;;;;;;4.65;1.80;;;;;;;4.16;100.00;101568.97;5011840;28;20030;-72
2023/03/05 10:53:24;;;;;;;2.97;1.60;;;;;;;3.88;100.00;101559.38;5016686;28;20065;-71
2023/03/05 10:55:54;;;;;;;1.30;1.20;;;;;;;3.90;100.00;101553.84;5015339;28;20041;-71
2023/03/05 10:58:24;;;;;;;1.58;1.10;;;;;;;3.96;100.00;101555.88;4995282;28;20646;-75
2023/03/05 11:01:11;;;;;;;3.50;1.35;;;;;;;4.04;100.00;101545.16;5010640;28;20029;-74
2023/03/05 11:04:02;;;;;;;2.80;1.05;;;;;;;4.18;100.00;101546.38;5024231;28;20046;-73
2023/03/05 11:06:37;;;;;;;2.88;1.15;;;;;;;4.36;100.00;101532.84;5017578;28;20030;-72
2023/03/05 11:09:28;;;;;;;2.58;1.33;;;;;;;4.58;100.00;101530.47;5010695;28;20386;-73
2023/03/05 11:12:07;;;;;;;2.40;1.02;;;;;;;4.60;100.00;101531.13;5005444;28;20040;-71
2023/03/05 11:14:39;;;;;;;3.30;1.25;;;;;;;4.69;100.00;101522.06;4994335;28;20050;-72
2023/03/05 11:17:26;;;;;;;3.08;1.20;;;;;;;4.79;100.00;101521.91;4994257;28;20089;-73
2023/03/05 11:19:52;;;;;;;3.53;1.23;;;;;;;4.90;100.00;101507.28;4992710;28;20038;-71
2023/03/05 11:22:22;;;;;;;3.22;1.75;;;;;;;4.97;100.00;101513.66;4993530;28;20089;-73
2023/03/05 11:25:11;;;;;;;5.68;1.60;;;;;;;5.03;100.00;101512.09;5019948;28;20033;-75